Time;durP1;ratioP1;P1;durP2;ratioP2;P2;SDS_P1;SDS_P2;PMS_P1;PMS_P2;Temp;Humidity;BMP_temperature;BMP_pressure;BME280_temperature;BME280_humidity;BME280_pressure;Samples;Min_cycle;Max_cycle;Signal;HPM_P1;HPM_P2
2022/06/09 00:00:41;;;;;;;5.30;2.80;;;;;;;21.69;45.73;147591.27;1696712;85;20996;-60
2022/06/09 00:03:12;;;;;;;7.47;3.25;;;;;;;21.63;45.81;147576.11;1696758;83;21011;-60
2022/06/09 00:05:40;;;;;;;6.15;2.77;;;;;;;21.59;45.78;147565.98;1696605;85;21008;-60
2022/06/09 00:08:08;;;;;;;5.90;3.22;;;;;;;21.64;45.87;147578.63;1696776;84;20969;-60
2022/06/09 00:10:39;;;;;;;6.15;2.92;;;;;;;21.66;45.79;147584.95;1696805;83;20995;-60
2022/06/09 00:13:08;;;;;;;5.35;2.98;;;;;;;21.65;45.79;147581.12;1696866;85;20976;-60
2022/06/09 00:15:35;;;;;;;5.45;2.65;;;;;;;21.64;45.95;147578.63;1696892;85;20968;-60
2022/06/09 00:18:03;;;;;;;5.53;2.95;;;;;;;21.63;45.94;147577.37;1696892;83;21004;-60
2022/06/09 00:20:31;;;;;;;8.00;3.30;;;;;;;21.62;46.01;147573.56;1696859;83;21000;-60
2022/06/09 00:22:58;;;;;;;4.50;2.62;;;;;;;21.62;45.95;147574.81;1696914;83;20987;-61
2022/06/09 00:25:26;;;;;;;6.85;2.85;;;;;;;21.59;45.81;147565.98;1696948;85;21004;-60
2022/06/09 00:27:53;;;;;;;6.22;3.25;;;;;;;21.56;45.95;147559.66;1696957;83;21019;-59
2022/06/09 00:30:20;;;;;;;7.80;3.20;;;;;;;21.52;46.09;147548.27;1696791;85;20989;-60
2022/06/09 00:32:48;;;;;;;6.53;3.15;;;;;;;21.49;46.17;147541.94;1696807;83;21066;-60
2022/06/09 00:35:15;;;;;;;7.58;3.65;;;;;;;21.46;46.20;147534.36;1696863;85;21009;-60
2022/06/09 00:37:42;;;;;;;6.92;3.12;;;;;;;21.46;46.28;147534.36;1696744;85;21521;-60
2022/06/09 00:40:13;;;;;;;6.53;3.22;;;;;;;21.48;46.29;147538.17;1696799;85;21047;-60
2022/06/09 00:42:40;;;;;;;8.00;3.20;;;;;;;21.47;46.33;147536.88;1696881;83;21024;-59
2022/06/09 00:45:38;;;;;;;5.25;2.87;;;;;;;21.45;46.52;147533.11;1696748;83;21000;-60
2022/06/09 00:48:19;;;;;;;5.53;3.00;;;;;;;21.44;46.37;147530.55;1629671;87;21050;-60
2022/06/09 00:50:57;;;;;;;5.35;3.42;;;;;;;21.44;46.32;147530.55;1630224;86;20996;-60
2022/06/09 00:53:31;;;;;;;7.78;3.40;;;;;;;21.45;46.39;147533.11;1652571;85;20993;-60
2022/06/09 00:56:01;;;;;;;6.72;2.95;;;;;;;21.42;46.61;147524.23;1652643;87;20993;-60
2022/06/09 00:58:31;;;;;;;8.45;3.60;;;;;;;21.39;46.50;147516.66;1652602;87;21153;-60
2022/06/09 01:01:03;;;;;;;9.28;4.40;;;;;;;21.37;46.72;147512.84;1634914;85;21483;-60
2022/06/09 01:03:35;;;;;;;8.20;4.20;;;;;;;21.35;47.00;147507.78;1663584;85;21024;-60
2022/06/09 01:06:08;;;;;;;6.87;3.70;;;;;;;21.29;47.29;147492.56;1701773;84;21021;-60
2022/06/09 01:08:41;;;;;;;8.13;3.33;;;;;;;21.20;47.39;147469.84;1708418;84;21451;-60
2022/06/09 01:11:08;;;;;;;6.70;3.17;;;;;;;21.17;46.87;147462.27;1708467;84;21497;-60
2022/06/09 01:13:35;;;;;;;5.90;2.90;;;;;;;21.24;46.98;147479.94;1708372;84;21022;-60
2022/06/09 01:16:07;;;;;;;4.50;2.67;;;;;;;21.25;47.11;147482.48;1708561;84;21000;-59
2022/06/09 01:18:58;;;;;;;10.55;3.35;;;;;;;21.22;47.00;147476.16;1662138;86;21053;-60
2022/06/09 01:21:36;;;;;;;6.12;2.95;;;;;;;21.21;46.99;147473.61;1708356;84;21104;-59
2022/06/09 01:24:34;;;;;;;6.05;2.80;;;;;;;21.17;46.85;147463.53;1657800;86;21051;-59
2022/06/09 01:27:25;;;;;;;8.55;3.10;;;;;;;21.17;47.02;147462.27;1708465;84;21005;-60
2022/06/09 01:30:10;;;;;;;6.20;2.77;;;;;;;21.16;47.08;147460.97;1689305;84;21013;-60
2022/06/09 01:32:42;;;;;;;5.20;2.95;;;;;;;21.15;47.63;147457.20;1662154;86;21543;-60
2022/06/09 01:35:23;;;;;;;6.53;3.50;;;;;;;21.11;47.82;147448.33;1707458;84;21024;-60
2022/06/09 01:37:55;;;;;;;7.00;3.30;;;;;;;21.08;48.01;147439.50;1662352;86;21021;-60
2022/06/09 01:40:23;;;;;;;6.25;3.35;;;;;;;21.06;48.06;147434.44;1708466;84;20984;-60
2022/06/09 01:42:57;;;;;;;5.87;3.25;;;;;;;21.06;48.06;147434.44;1642053;86;21024;-60
2022/06/09 01:45:52;;;;;;;6.47;3.30;;;;;;;21.08;48.00;147439.50;1679811;85;20973;-60
2022/06/09 01:48:21;;;;;;;6.05;2.92;;;;;;;21.08;47.89;147439.50;1663571;86;21039;-60
2022/06/09 01:50:59;;;;;;;5.80;3.08;;;;;;;21.08;48.19;147439.50;1654750;85;20977;-60
2022/06/09 01:53:52;;;;;;;6.90;3.40;;;;;;;21.03;48.62;147429.36;1663640;85;21008;-60
2022/06/09 01:56:43;;;;;;;5.87;3.70;;;;;;;21.00;49.10;147421.78;1664686;85;21027;-60
2022/06/09 01:59:18;;;;;;;7.67;3.90;;;;;;;20.93;49.88;147402.83;1665476;85;21021;-60
2022/06/09 02:02:05;;;;;;;6.50;3.65;;;;;;;20.83;50.80;147378.80;1665238;85;21502;-60
2022/06/09 02:04:40;;;;;;;6.20;3.50;;;;;;;20.77;51.22;147363.66;1681477;85;21466;-60
2022/06/09 02:07:09;;;;;;;10.58;3.80;;;;;;;20.75;51.29;147358.59;1664624;85;21004;-60
2022/06/09 02:09:38;;;;;;;7.78;3.83;;;;;;;20.71;51.65;147348.47;1698770;84;21052;-60
2022/06/09 02:12:13;;;;;;;5.40;3.58;;;;;;;20.67;51.91;147338.38;1698732;83;20997;-60
2022/06/09 02:14:42;;;;;;;5.08;3.70;;;;;;;20.64;52.32;147330.81;1698005;84;21027;-59
2022/06/09 02:17:11;;;;;;;6.20;3.70;;;;;;;20.60;52.40;147323.19;1698726;84;21000;-59
2022/06/09 02:19:41;;;;;;;7.50;4.30;;;;;;;20.56;52.57;147313.11;1698808;84;21043;-59
2022/06/09 02:22:11;;;;;;;6.25;3.90;;;;;;;20.52;53.03;147302.94;1698776;84;20996;-60
2022/06/09 02:24:38;;;;;;;7.83;4.20;;;;;;;20.47;53.01;147289.03;1698783;84;21012;-60
2022/06/09 02:27:05;;;;;;;6.12;3.90;;;;;;;20.42;53.69;147277.66;1698753;83;21509;-59
2022/06/09 02:29:34;;;;;;;6.42;4.28;;;;;;;20.37;53.40;147265.02;1698812;84;21039;-60
2022/06/09 02:32:01;;;;;;;7.10;4.35;;;;;;;20.34;54.33;147258.70;1698767;84;21478;-60
2022/06/09 02:34:29;;;;;;;6.95;4.30;;;;;;;20.29;54.22;147244.81;1698824;83;20992;-60
2022/06/09 02:36:56;;;;;;;9.73;5.12;;;;;;;20.24;54.58;147232.19;1698765;84;21038;-59
2022/06/09 02:39:22;;;;;;;9.43;5.08;;;;;;;20.19;54.67;147219.55;1698765;84;21049;-60
2022/06/09 02:41:49;;;;;;;9.23;5.50;;;;;;;20.14;55.08;147209.42;1698779;84;21021;-61
2022/06/09 02:44:16;;;;;;;10.65;4.90;;;;;;;20.11;55.06;147200.59;1698811;84;21004;-60
2022/06/09 02:46:43;;;;;;;13.83;5.17;;;;;;;20.09;55.51;147195.53;1698588;83;20976;-59
2022/06/09 02:49:10;;;;;;;7.50;4.87;;;;;;;20.02;55.73;147177.84;1698768;83;20968;-60
2022/06/09 02:51:41;;;;;;;7.78;4.33;;;;;;;19.98;55.90;147169.02;1698752;83;20968;-60
2022/06/09 02:54:12;;;;;;;7.97;4.30;;;;;;;19.94;55.84;147158.91;1698179;83;20984;-60
2022/06/09 02:56:42;;;;;;;;;;;;;;;19.95;55.53;147161.45;1699296;85;21009;-60
2022/06/09 02:59:11;;;;;;;8.13;4.45;;;;;;;19.99;55.03;147171.53;1696774;85;20134;-60
2022/06/09 03:01:37;;;;;;;6.62;4.37;;;;;;;20.03;55.25;147180.41;1696669;85;21533;-65
2022/06/09 03:04:05;;;;;;;6.78;4.05;;;;;;;20.04;55.38;147184.16;1696590;83;21497;-60
2022/06/09 03:06:32;;;;;;;5.87;3.87;;;;;;;20.01;55.67;147176.59;1696361;83;21476;-60
2022/06/09 03:08:59;;;;;;;10.40;4.30;;;;;;;20.02;55.84;147177.84;1696667;83;21517;-61
2022/06/09 03:11:28;;;;;;;9.10;4.20;;;;;;;20.03;55.75;147180.41;1696646;83;21535;-60
2022/06/09 03:13:54;;;;;;;8.05;4.05;;;;;;;20.04;55.75;147182.91;1696656;85;21032;-60
2022/06/09 03:16:21;;;;;;;7.08;4.00;;;;;;;20.06;55.19;147189.22;1668782;85;21498;-60
2022/06/09 03:18:48;;;;;;;6.53;3.80;;;;;;;20.13;54.98;147205.66;1678071;85;20989;-60
2022/06/09 03:21:15;;;;;;;7.35;3.80;;;;;;;20.19;54.93;147220.81;1696699;83;20968;-60
2022/06/09 03:23:42;;;;;;;9.80;4.28;;;;;;;20.28;54.50;147242.31;1696742;83;21044;-60
2022/06/09 03:26:09;;;;;;;6.50;3.62;;;;;;;20.33;54.39;147256.19;1696658;83;21001;-60
2022/06/09 03:28:37;;;;;;;7.72;4.22;;;;;;;20.39;54.23;147270.09;1696728;83;20988;-60
2022/06/09 03:31:04;;;;;;;13.40;4.90;;;;;;;20.45;54.47;147285.22;1696669;83;21000;-60
2022/06/09 03:33:31;;;;;;;9.78;4.30;;;;;;;20.51;54.36;147299.17;1696767;85;21534;-59
2022/06/09 03:35:58;;;;;;;10.38;5.10;;;;;;;20.54;54.33;147308.05;1696739;83;20964;-59
2022/06/09 03:38:25;;;;;;;8.25;4.22;;;;;;;20.59;54.26;147320.67;1696701;85;20980;-60
2022/06/09 03:40:52;;;;;;;8.28;4.12;;;;;;;20.65;53.37;147334.56;1696760;85;21011;-60
2022/06/09 03:43:18;;;;;;;8.00;4.40;;;;;;;20.74;53.83;147357.34;1696798;84;21004;-59
2022/06/09 03:45:45;;;;;;;9.05;4.20;;;;;;;20.80;53.07;147372.48;1696879;84;21052;-60
2022/06/09 03:48:12;;;;;;;6.03;3.50;;;;;;;20.90;52.61;147395.25;1696871;85;21051;-60
2022/06/09 03:50:38;;;;;;;7.75;3.98;;;;;;;20.98;51.46;147415.47;1696910;84;20987;-60
2022/06/09 03:53:05;;;;;;;12.55;3.77;;;;;;;21.07;52.31;147438.25;1696887;85;21042;-60
2022/06/09 03:55:33;;;;;;;8.13;4.28;;;;;;;21.13;51.99;147453.39;1696867;83;21039;-60
2022/06/09 03:57:59;;;;;;;9.18;3.62;;;;;;;21.20;51.75;147469.84;1696860;83;20980;-60
2022/06/09 04:00:30;;;;;;;8.18;3.83;;;;;;;21.31;51.05;147496.38;1696880;85;21011;-60
2022/06/09 04:02:56;;;;;;;8.08;3.47;;;;;;;21.39;51.54;147516.66;1696953;85;20973;-60
2022/06/09 04:05:23;;;;;;;6.90;3.60;;;;;;;21.48;50.40;147539.44;1696897;83;20992;-60
2022/06/09 04:07:51;;;;;;;8.70;3.40;;;;;;;21.56;49.99;147558.41;1696995;85;21008;-60
2022/06/09 04:10:23;;;;;;;6.10;3.27;;;;;;;21.64;50.21;147578.63;1696846;83;20992;-60
2022/06/09 04:12:51;;;;;;;5.85;3.35;;;;;;;21.70;49.08;147592.53;1696812;85;21029;-60
2022/06/09 04:15:20;;;;;;;4.37;2.42;;;;;;;21.73;49.00;147601.41;1696871;85;20980;-60
2022/06/09 04:17:47;;;;;;;7.00;2.80;;;;;;;21.77;46.81;147610.25;1696721;85;21063;-59
2022/06/09 04:20:20;;;;;;;6.50;2.58;;;;;;;21.81;46.90;147621.63;1696748;83;21529;-60
2022/06/09 04:22:47;;;;;;;5.92;2.90;;;;;;;21.87;46.09;147636.78;1697109;85;21110;-60
2022/06/09 04:25:14;;;;;;;7.45;2.92;;;;;;;21.95;46.23;147655.77;1696849;85;21056;-60
2022/06/09 04:27:42;;;;;;;5.97;2.65;;;;;;;22.01;46.19;147670.97;1696876;85;21539;-60
2022/06/09 04:30:10;;;;;;;8.75;2.85;;;;;;;22.03;46.14;147674.73;1696699;85;21056;-60
2022/06/09 04:32:37;;;;;;;4.42;2.45;;;;;;;22.07;46.34;147684.87;1696808;85;20996;-60
2022/06/09 04:35:06;;;;;;;6.45;2.75;;;;;;;22.12;45.24;147697.53;1696781;83;21470;-60
2022/06/09 04:40:17;;;;;;;8.68;2.98;;;;;;;22.25;44.92;147730.45;1696861;85;21008;-60
2022/06/09 04:42:44;;;;;;;6.08;2.80;;;;;;;22.33;46.16;147749.44;1696841;83;21016;-60
2022/06/09 04:45:11;;;;;;;11.00;3.02;;;;;;;22.41;46.32;147769.67;1696819;83;21015;-60
2022/06/09 04:47:39;;;;;;;7.25;2.65;;;;;;;22.52;46.48;147797.53;1696733;83;20996;-61
2022/06/09 04:50:09;;;;;;;7.40;3.20;;;;;;;22.65;46.95;147827.92;1696752;85;20999;-60
2022/06/09 04:52:36;;;;;;;7.22;3.20;;;;;;;22.73;46.59;147849.41;1696743;85;21048;-60
2022/06/09 04:55:04;;;;;;;7.50;3.20;;;;;;;22.83;45.39;147872.22;1696699;83;21502;-60
2022/06/09 04:57:31;;;;;;;8.43;2.60;;;;;;;22.93;45.20;147897.53;1696779;83;21048;-60
2022/06/09 04:59:58;;;;;;;8.18;3.15;;;;;;;23.02;45.48;147920.33;1696817;85;21052;-60
2022/06/09 05:02:26;;;;;;;6.12;2.98;;;;;;;23.13;45.13;147948.20;1696717;83;20992;-60
2022/06/09 05:04:52;;;;;;;8.03;2.65;;;;;;;23.24;44.46;147973.53;1696714;83;21075;-61
2022/06/09 05:07:19;;;;;;;7.67;2.30;;;;;;;23.36;44.39;148003.92;1720145;83;20988;-61
2022/06/09 05:09:46;;;;;;;6.65;2.58;;;;;;;23.45;44.17;148026.69;1725760;83;20995;-60
2022/06/09 05:12:13;;;;;;;5.87;2.70;;;;;;;23.58;44.34;148058.34;1725750;83;20949;-61
2022/06/09 05:14:41;;;;;;;7.53;2.60;;;;;;;23.71;43.99;148090.00;1725644;83;21086;-61
2022/06/09 05:17:08;;;;;;;6.95;2.52;;;;;;;23.83;43.70;148121.70;1725655;83;21016;-61
2022/06/09 05:19:35;;;;;;;7.15;2.40;;;;;;;23.94;42.49;148148.34;1721569;83;21003;-61
2022/06/09 05:22:02;;;;;;;5.35;2.20;;;;;;;24.07;41.27;148178.70;1696839;85;21490;-61
2022/06/09 05:24:29;;;;;;;4.20;2.12;;;;;;;24.19;41.52;148210.37;1696795;83;20999;-60
2022/06/09 05:26:55;;;;;;;6.12;2.30;;;;;;;24.33;40.95;148244.59;1696779;85;21035;-62
2022/06/09 05:29:22;;;;;;;6.90;1.80;;;;;;;24.46;40.01;148276.33;1696733;85;21040;-60
2022/06/09 05:31:49;;;;;;;4.97;1.82;;;;;;;24.59;39.17;148308.00;1696734;85;21012;-60
2022/06/09 05:34:16;;;;;;;3.92;1.50;;;;;;;24.73;38.91;148343.50;1696760;83;21025;-60
2022/06/09 05:36:44;;;;;;;6.08;1.60;;;;;;;24.87;38.32;148378.97;1696726;83;20980;-60
2022/06/09 05:44:51;;;;;;;3.65;1.80;;;;;;;25.26;37.78;148475.33;1681306;85;21020;-61
2022/06/09 05:47:20;;;;;;;7.60;1.87;;;;;;;25.41;37.60;148510.84;1696824;85;21043;-63
2022/06/09 05:49:49;;;;;;;4.22;1.92;;;;;;;25.58;37.54;148553.97;1696738;85;21027;-59
2022/06/09 05:52:19;;;;;;;5.20;1.70;;;;;;;26.14;36.14;148693.52;1696772;85;21137;-59
2022/06/09 05:54:46;;;;;;;4.37;1.90;;;;;;;27.71;34.21;149081.98;1684640;83;21163;-59
2022/06/09 05:57:13;;;;;;;6.05;1.80;;;;;;;29.32;31.57;149481.02;1693020;83;20992;-59
2022/06/09 05:59:40;;;;;;;4.25;1.70;;;;;;;30.63;30.11;149806.59;1682566;83;21031;-59
2022/06/09 06:02:10;;;;;;;5.35;1.75;;;;;;;32.08;29.55;150166.88;1692730;83;20972;-61
2022/06/09 06:04:37;;;;;;;5.45;1.92;;;;;;;34.04;26.49;150654.88;1707414;83;21020;-59
2022/06/09 06:07:04;;;;;;;9.05;1.85;;;;;;;34.57;24.99;150787.50;1699679;83;20988;-60
2022/06/09 06:09:33;;;;;;;6.30;1.87;;;;;;;34.71;24.52;150822.00;1692858;83;20965;-60
2022/06/09 06:12:03;;;;;;;6.85;2.22;;;;;;;34.71;24.25;150822.00;1690815;83;21555;-63
2022/06/09 06:14:31;;;;;;;6.50;2.35;;;;;;;35.29;23.91;150967.42;1696776;83;20980;-60
2022/06/09 06:16:58;;;;;;;9.50;2.02;;;;;;;35.52;23.71;151024.81;1690124;83;21473;-59
2022/06/09 06:19:25;;;;;;;4.50;1.70;;;;;;;35.62;22.84;151049.06;1695945;83;21495;-60
2022/06/09 06:21:53;;;;;;;5.80;1.90;;;;;;;35.25;23.08;150955.94;1689963;83;21000;-59
2022/06/09 06:24:24;;;;;;;4.85;1.62;;;;;;;35.30;23.29;150968.69;1692614;83;21478;-59
2022/06/09 06:26:53;;;;;;;3.62;1.30;;;;;;;35.18;23.02;150940.61;1655306;84;20965;-59
2022/06/09 06:29:24;;;;;;;4.90;1.70;;;;;;;34.99;23.49;150893.39;1651257;85;21065;-59
2022/06/09 06:31:51;;;;;;;8.03;1.82;;;;;;;35.85;23.19;151106.52;1656117;86;21076;-59
2022/06/09 06:34:20;;;;;;;4.62;1.60;;;;;;;37.39;21.82;151489.53;1684877;84;21068;-60
2022/06/09 06:36:48;;;;;;;3.65;1.40;;;;;;;38.40;21.19;151742.50;1650254;86;21004;-60
2022/06/09 06:39:14;;;;;;;6.40;1.40;;;;;;;38.64;20.42;151803.84;1624906;86;21036;-60
2022/06/09 06:41:42;;;;;;;5.15;1.57;;;;;;;38.19;20.81;151690.09;1668148;84;20985;-60
2022/06/09 06:44:09;;;;;;;13.15;1.85;;;;;;;37.73;21.48;151576.42;1671224;84;21446;-60
2022/06/09 06:46:36;;;;;;;10.78;1.80;;;;;;;37.94;20.95;151627.50;1667086;84;21004;-59
2022/06/09 06:49:03;;;;;;;8.68;1.72;;;;;;;38.00;21.29;151642.86;1665529;84;20992;-60
2022/06/09 06:51:30;;;;;;;6.58;1.15;;;;;;;38.49;20.49;151765.53;1672839;84;21582;-61
2022/06/09 06:53:57;;;;;;;4.17;1.50;;;;;;;38.09;20.63;151664.55;1668013;84;21085;-59
2022/06/09 06:56:23;;;;;;;3.95;1.37;;;;;;;38.86;20.77;151858.81;1656115;84;20997;-60
2022/06/09 06:58:50;;;;;;;7.55;1.27;;;;;;;40.68;19.26;152312.84;1685707;82;21493;-60
2022/06/09 07:01:17;;;;;;;3.75;1.60;;;;;;;42.21;18.01;152694.23;1700216;82;21075;-59
2022/06/09 07:03:45;;;;;;;5.92;1.82;;;;;;;42.49;17.35;152764.69;1709285;82;20995;-59
2022/06/09 07:06:12;;;;;;;4.53;1.00;;;;;;;41.99;17.58;152640.52;1659209;84;21532;-60
2022/06/09 07:08:39;;;;;;;2.37;1.00;;;;;;;41.69;17.33;152563.69;1710468;82;21501;-60
2022/06/09 07:11:07;;;;;;;3.20;1.30;;;;;;;40.80;17.51;152342.28;1692795;82;20976;-58
2022/06/09 07:13:36;;;;;;;3.92;1.10;;;;;;;40.13;17.37;152174.67;1692777;82;21474;-60
2022/06/09 07:16:06;;;;;;;6.37;1.90;;;;;;;39.51;18.37;152019.91;1706130;82;20964;-61
2022/06/09 07:18:35;;;;;;;4.70;1.20;;;;;;;39.84;18.45;152103.03;1702745;83;21467;-60
2022/06/09 07:21:04;;;;;;;5.85;1.20;;;;;;;40.48;17.44;152262.95;1703718;82;21020;-60
2022/06/09 07:23:32;;;;;;;3.37;1.32;;;;;;;39.89;17.68;152114.56;1706862;82;21003;-60
2022/06/09 07:29:33;;;;;;;4.62;1.72;;;;;;;39.72;17.98;152073.63;1802656;79;22770;-60
2022/06/09 07:32:00;;;;;;;7.15;1.85;;;;;;;38.94;18.56;151878.02;1758679;81;20980;-60
2022/06/09 07:34:28;;;;;;;4.20;1.20;;;;;;;37.47;19.68;151511.22;1756670;80;21108;-60
2022/06/09 07:36:55;;;;;;;2.65;0.95;;;;;;;36.71;20.16;151320.95;1756886;81;21035;-59
2022/06/09 07:39:24;;;;;;;5.22;1.20;;;;;;;36.62;20.56;151298.00;1756641;80;21040;-59
2022/06/09 07:41:51;;;;;;;4.05;1.75;;;;;;;36.83;20.46;151351.59;1756639;80;21043;-61
2022/06/09 07:44:18;;;;;;;4.35;1.42;;;;;;;37.21;20.14;151446.11;1761093;81;21052;-58
2022/06/09 07:46:45;;;;;;;3.85;1.40;;;;;;;37.85;19.68;151604.50;1729280;82;21007;-60
2022/06/09 07:49:13;;;;;;;5.28;1.50;;;;;;;38.02;19.41;151647.97;1729013;83;21153;-60
2022/06/09 07:51:40;;;;;;;2.83;1.30;;;;;;;37.51;19.76;151521.50;1724040;81;21045;-64
2022/06/09 07:54:08;;;;;;;2.77;1.10;;;;;;;37.40;20.11;151492.06;1712032;82;21605;-60
2022/06/09 07:56:35;;;;;;;4.45;1.17;;;;;;;36.25;20.89;151206.05;1716478;82;21596;-60
2022/06/09 07:59:08;;;;;;;3.70;1.55;;;;;;;35.64;21.49;151055.44;1712575;82;21045;-60
2022/06/09 08:01:36;;;;;;;4.58;1.25;;;;;;;35.85;21.90;151106.52;1718211;82;21060;-60
2022/06/09 08:04:04;;;;;;;3.33;1.12;;;;;;;36.12;21.80;151172.89;1708186;82;21087;-59
2022/06/09 08:06:31;;;;;;;5.45;1.32;;;;;;;36.85;21.40;151355.44;1712315;82;21042;-59
2022/06/09 08:09:00;;;;;;;3.33;1.20;;;;;;;38.11;19.91;151669.67;1708101;82;21021;-59
2022/06/09 08:11:35;;;;;;;2.85;0.95;;;;;;;38.53;19.38;151775.75;1701442;83;21535;-61
2022/06/09 08:14:03;;;;;;;3.62;1.10;;;;;;;37.87;18.97;151609.63;1718807;82;21028;-60
2022/06/09 08:16:30;;;;;;;2.95;1.30;;;;;;;37.74;19.23;151577.69;1713974;83;21511;-60
2022/06/09 08:18:57;;;;;;;2.92;1.35;;;;;;;37.85;19.32;151604.50;1707500;83;21077;-59
2022/06/09 08:21:27;;;;;;;5.00;1.70;;;;;;;37.33;19.48;151476.77;1718603;82;21032;-60
2022/06/09 08:23:55;;;;;;;6.72;3.70;;;;;;;36.94;20.11;151379.70;1713058;82;21024;-59
2022/06/09 08:26:23;;;;;;;6.75;2.62;;;;;;;36.78;20.39;151338.83;1708477;82;21550;-60
2022/06/09 08:28:50;;;;;;;5.20;1.50;;;;;;;36.26;21.22;151208.62;1709951;81;21062;-60
2022/06/09 08:31:17;;;;;;;4.20;1.65;;;;;;;36.68;20.88;151313.30;1696901;83;21103;-59
2022/06/09 08:33:44;;;;;;;2.33;1.00;;;;;;;36.44;20.35;151253.30;1760996;80;21054;-61
2022/06/09 08:36:12;;;;;;;3.37;1.22;;;;;;;35.88;20.36;151114.16;1746711;79;21721;-59
2022/06/09 08:38:40;;;;;;;3.62;0.90;;;;;;;35.34;20.51;150978.86;1715854;82;21361;-59
2022/06/09 08:41:35;;;;;;;3.52;1.98;;;;;;;34.86;21.02;150858.94;1757882;80;21004;-59
2022/06/09 08:44:22;;;;;;;5.53;2.52;;;;;;;34.79;21.13;150843.66;1766278;80;21004;-59
2022/06/09 08:47:07;;;;;;;4.45;2.20;;;;;;;34.74;21.18;150829.64;1752151;80;21502;-62
2022/06/09 08:49:54;;;;;;;4.47;2.10;;;;;;;34.57;21.51;150787.50;1755508;80;21050;-60
2022/06/09 08:52:50;;;;;;;4.50;2.10;;;;;;;34.22;21.10;150700.86;1758043;80;21559;-61
2022/06/09 08:55:38;;;;;;;5.10;2.85;;;;;;;34.51;21.07;150772.22;1746481;80;21051;-64
2022/06/09 08:58:26;;;;;;;5.00;2.30;;;;;;;34.71;21.24;150823.27;1762722;80;21102;-63
2022/06/09 09:01:14;;;;;;;6.20;1.70;;;;;;;34.59;21.64;150792.66;1758810;80;20993;-59
2022/06/09 09:04:11;;;;;;;4.58;2.30;;;;;;;33.70;21.99;150570.78;1753249;80;21198;-60
2022/06/09 09:06:53;;;;;;;8.08;2.05;;;;;;;32.97;23.07;150388.50;1770738;80;21074;-59
2022/06/09 09:09:24;;;;;;;4.00;2.02;;;;;;;32.08;23.62;150166.88;1720659;82;21059;-60
2022/06/09 09:12:18;;;;;;;3.85;1.82;;;;;;;31.47;24.40;150015.34;1758926;80;21059;-59
2022/06/09 09:15:07;;;;;;;3.12;1.57;;;;;;;31.04;25.07;149909.72;1755642;80;21030;-59
2022/06/09 09:17:55;;;;;;;4.42;1.45;;;;;;;30.70;25.48;149824.41;1696162;83;21063;-58
2022/06/09 09:20:33;;;;;;;6.55;3.52;;;;;;;30.52;25.81;149778.63;1696394;83;21066;-59
2022/06/09 09:23:13;;;;;;;9.45;4.05;;;;;;;29.96;25.91;149639.97;1702617;83;21099;-59
2022/06/09 09:25:47;;;;;;;;;;;;;;;29.70;26.28;149575.13;1707099;83;21102;-60
2022/06/09 09:28:18;;;;;;;6.97;2.37;;;;;;;29.64;26.61;149561.06;1693932;83;20412;-59
2022/06/09 09:31:08;;;;;;;4.05;1.50;;;;;;;29.68;26.90;149570.03;1741265;80;21482;-58
2022/06/09 09:33:36;;;;;;;5.50;1.80;;;;;;;29.75;27.26;149587.84;1748953;80;21004;-59
2022/06/09 09:36:08;;;;;;;5.03;1.95;;;;;;;29.47;27.81;149519.14;1753253;80;20976;-58
2022/06/09 09:38:43;;;;;;;3.08;1.72;;;;;;;29.21;28.76;149455.59;1737302;80;21490;-59
2022/06/09 09:41:33;;;;;;;9.80;1.90;;;;;;;29.03;29.51;149409.81;1748663;80;21040;-59
2022/06/09 09:44:24;;;;;;;3.85;1.82;;;;;;;28.95;30.07;149389.44;1708289;82;21522;-59
2022/06/09 09:46:56;;;;;;;5.62;2.00;;;;;;;28.97;30.12;149394.53;1760966;80;21529;-59
2022/06/09 09:49:43;;;;;;;6.70;2.00;;;;;;;28.98;30.43;149397.11;1755989;80;21024;-59
2022/06/09 09:52:43;;;;;;;6.30;2.10;;;;;;;28.87;30.24;149370.38;1761204;80;21904;-59
2022/06/09 09:55:27;;;;;;;5.72;2.30;;;;;;;28.84;30.22;149361.50;1725723;80;21032;-59
2022/06/09 09:58:26;;;;;;;7.90;2.00;;;;;;;28.78;30.49;149348.80;1751575;80;21091;-59
2022/06/09 10:01:01;;;;;;;3.85;1.72;;;;;;;28.94;30.14;149388.19;1756719;80;21615;-59
2022/06/09 10:09:22;;;;;;;2.87;1.70;;;;;;;29.55;29.17;149539.47;1750778;80;21581;-60
2022/06/09 10:11:56;;;;;;;6.35;2.12;;;;;;;29.44;29.14;149511.53;1737911;79;21044;-61
2022/06/09 10:14:53;;;;;;;4.00;2.20;;;;;;;29.39;29.33;149498.81;1748448;80;21044;-60
2022/06/09 10:17:54;;;;;;;5.08;2.00;;;;;;;29.18;29.96;149446.67;1740933;80;21036;-61
2022/06/09 10:20:35;;;;;;;4.30;2.25;;;;;;;28.89;30.73;149374.22;1745968;80;21044;-61
2022/06/09 10:23:19;;;;;;;7.55;2.00;;;;;;;28.84;30.57;149361.50;1747405;80;21040;-59
2022/06/09 10:26:11;;;;;;;7.17;1.95;;;;;;;28.86;30.57;149367.86;1765946;80;21020;-59
2022/06/09 10:28:49;;;;;;;7.42;2.08;;;;;;;29.01;30.58;149404.72;1735284;80;21749;-59
2022/06/09 10:31:37;;;;;;;3.95;2.00;;;;;;;29.18;30.66;149446.67;1748775;80;21018;-59
2022/06/09 10:34:24;;;;;;;7.95;2.00;;;;;;;29.06;31.04;149416.22;1746137;80;21097;-60
2022/06/09 10:37:25;;;;;;;5.55;2.20;;;;;;;28.88;31.36;149371.69;1734514;80;21020;-60
2022/06/09 10:40:03;;;;;;;8.53;2.50;;;;;;;28.58;31.65;149296.72;1732680;81;21059;-59
2022/06/09 10:42:57;;;;;;;6.47;1.95;;;;;;;28.43;31.69;149259.83;1755733;80;21044;-59
2022/06/09 10:45:41;;;;;;;4.72;2.30;;;;;;;28.45;31.97;149264.97;1758807;80;21082;-60
2022/06/09 10:57:27;;;;;;;4.30;1.90;;;;;;;28.68;31.56;149322.13;1763400;80;20999;-59
2022/06/09 11:00:13;;;;;;;7.35;1.90;;;;;;;28.85;30.96;149364.03;1753310;80;21063;-59
2022/06/09 11:02:56;;;;;;;3.35;1.87;;;;;;;29.01;31.28;149404.72;1763796;80;21055;-59
2022/06/09 11:05:58;;;;;;;6.83;1.80;;;;;;;29.06;30.52;149416.22;1726028;80;21718;-58
2022/06/09 11:08:57;;;;;;;5.55;2.12;;;;;;;29.03;30.36;149409.81;1772991;80;21588;-60
2022/06/09 11:12:09;;;;;;;2.98;1.57;;;;;;;28.93;30.25;149384.41;1764338;80;21064;-59
2022/06/09 11:15:03;;;;;;;3.22;1.55;;;;;;;29.09;30.35;149423.83;1706380;82;21036;-61
2022/06/09 11:18:05;;;;;;;4.28;1.87;;;;;;;29.51;29.84;149529.28;1750203;80;21055;-59
2022/06/09 11:21:15;;;;;;;7.83;2.00;;;;;;;29.89;29.71;149622.16;1714905;80;21055;-60
2022/06/09 11:24:14;;;;;;;4.87;1.62;;;;;;;30.00;29.50;149650.16;1757210;80;21029;-59
2022/06/09 11:27:09;;;;;;;7.47;1.80;;;;;;;30.20;29.23;149699.70;1781278;80;21098;-60
2022/06/09 11:29:59;;;;;;;5.72;1.92;;;;;;;30.62;29.16;149804.06;1753335;80;21036;-59
2022/06/09 11:32:38;;;;;;;7.35;1.72;;;;;;;31.04;28.55;149908.41;1777024;80;21087;-60
2022/06/09 11:35:42;;;;;;;5.83;2.35;;;;;;;30.91;28.15;149877.92;1749706;80;21313;-59
2022/06/09 11:38:20;;;;;;;3.87;1.90;;;;;;;31.00;28.14;149899.53;1760038;80;21051;-59
2022/06/09 11:41:08;;;;;;;6.08;2.05;;;;;;;31.16;28.25;149938.95;1769323;80;21063;-59
2022/06/09 11:43:59;;;;;;;7.53;2.02;;;;;;;30.75;28.65;149837.13;1759669;80;21549;-59
2022/06/09 11:46:34;;;;;;;6.35;1.95;;;;;;;30.05;29.32;149664.13;1774241;80;21047;-60
2022/06/09 11:49:06;;;;;;;3.50;1.90;;;;;;;29.72;29.95;149580.23;1784135;80;21042;-60
2022/06/09 11:51:35;;;;;;;4.17;1.75;;;;;;;29.66;29.53;149566.20;1770457;80;20984;-59
2022/06/09 11:54:07;;;;;;;4.90;1.90;;;;;;;29.55;30.09;149539.47;1766814;80;21510;-59
2022/06/09 11:56:40;;;;;;;6.28;2.08;;;;;;;29.40;30.42;149501.34;1739654;80;21132;-59
2022/06/09 11:59:21;;;;;;;4.92;1.57;;;;;;;29.18;30.27;149446.67;1740573;80;21486;-59
2022/06/09 12:02:34;;;;;;;4.42;1.80;;;;;;;29.05;30.87;149414.91;1766871;80;21413;-59
2022/06/09 12:05:32;;;;;;;6.12;1.95;;;;;;;28.97;30.38;149394.53;1774423;80;21040;-59
2022/06/09 12:08:20;;;;;;;3.55;1.72;;;;;;;29.11;30.42;149430.19;1728493;80;21015;-59
2022/06/09 12:11:19;;;;;;;3.98;2.02;;;;;;;29.56;30.33;149542.00;1783454;80;21056;-59
2022/06/09 12:13:57;;;;;;;4.30;1.92;;;;;;;30.21;30.00;149702.28;1769856;80;21017;-59
2022/06/09 12:16:33;;;;;;;5.12;2.02;;;;;;;30.39;29.54;149746.84;1750989;80;21051;-60
2022/06/09 12:19:17;;;;;;;4.58;2.00;;;;;;;30.40;29.87;149750.62;1778921;80;21012;-59
2022/06/09 12:21:49;;;;;;;3.58;1.60;;;;;;;30.32;29.70;149729.02;1784192;80;20988;-58